createdAt,value
2022-12-09T00:00:06.816Z,5.10
2022-12-09T00:05:10.099Z,5.90
2022-12-09T00:10:12.910Z,5.40
2022-12-09T00:15:15.521Z,5.40
2022-12-09T00:20:17.994Z,6.10
2022-12-09T00:25:20.354Z,5.30
2022-12-09T00:30:22.974Z,4.80
2022-12-09T00:35:25.449Z,5.60
2022-12-09T00:40:28.654Z,5.40
2022-12-09T00:45:31.223Z,5.00
2022-12-09T00:50:33.638Z,5.70
2022-12-09T00:55:36.114Z,6.00
2022-12-09T01:00:39.267Z,5.20
2022-12-09T01:05:42.876Z,4.40
2022-12-09T01:10:47.514Z,4.60
2022-12-09T01:15:50.126Z,4.50
2022-12-09T01:20:59.838Z,5.30
2022-12-09T01:26:07.381Z,6.20
2022-12-09T01:31:15.812Z,5.70
2022-12-09T01:36:22.285Z,5.60
2022-12-09T01:41:25.150Z,5.80
2022-12-09T01:46:27.705Z,5.50
2022-12-09T01:51:30.991Z,5.60
2022-12-09T01:56:36.143Z,4.50
2022-12-09T02:01:41.235Z,4.10
2022-12-09T02:06:44.184Z,3.70
2022-12-09T02:12:10.016Z,3.40
2022-12-09T02:17:35.384Z,3.40
2022-12-09T02:22:45.222Z,3.50
2022-12-09T02:28:05.709Z,3.80
2022-12-09T02:33:23.765Z,3.50
2022-12-09T02:38:28.956Z,3.60
2022-12-09T02:43:37.471Z,3.90
2022-12-09T02:48:45.854Z,3.40
2022-12-09T02:53:54.169Z,3.00
2022-12-09T02:58:57.495Z,2.80
2022-12-09T03:04:03.909Z,3.10
2022-12-09T03:09:13.868Z,3.40
2022-12-09T03:14:24.132Z,3.40
2022-12-09T03:19:36.887Z,3.30
2022-12-09T03:24:47.346Z,3.40
2022-12-09T03:29:51.028Z,3.40
2022-12-09T03:35:01.720Z,3.30
2022-12-09T03:40:13.659Z,3.20
2022-12-09T03:45:19.744Z,3.00
2022-12-09T03:50:25.162Z,2.60
2022-12-09T03:55:39.109Z,2.40
2022-12-09T04:00:41.755Z,2.50
2022-12-09T04:05:44.553Z,2.60
2022-12-09T04:10:47.044Z,2.40
2022-12-09T04:15:49.780Z,2.20
2022-12-09T04:20:52.391Z,2.50
2022-12-09T04:25:54.856Z,2.20
2022-12-09T04:30:58.088Z,1.90
2022-12-09T04:36:08.714Z,1.80
2022-12-09T04:41:12.570Z,1.90
2022-12-09T04:46:18.243Z,2.20
2022-12-09T04:51:21.109Z,2.40
2022-12-09T04:56:23.786Z,2.10
2022-12-09T05:01:30.568Z,2.00
2022-12-09T05:06:34.587Z,2.20
2022-12-09T05:11:37.610Z,2.10
2022-12-09T05:16:40.625Z,1.90
2022-12-09T05:21:44.067Z,1.90
2022-12-09T05:26:47.353Z,1.70
2022-12-09T05:31:51.731Z,1.60
2022-12-09T05:36:54.831Z,1.60
2022-12-09T05:41:57.641Z,1.40
2022-12-09T05:47:00.241Z,1.30
2022-12-09T05:52:03.292Z,1.30
2022-12-09T05:57:06.557Z,1.40
2022-12-09T06:02:10.419Z,1.30
2022-12-09T06:07:13.535Z,1.30
2022-12-09T06:12:16.963Z,1.60
2022-12-09T06:17:20.791Z,1.90
2022-12-09T06:22:23.576Z,2.30
2022-12-09T06:27:26.432Z,2.60
2022-12-09T06:32:30.813Z,2.30
2022-12-09T06:37:33.834Z,2.10
2022-12-09T06:42:38.278Z,2.00
2022-12-09T06:47:41.340Z,2.20
2022-12-09T06:52:44.200Z,2.20
2022-12-09T06:57:47.459Z,2.10
2022-12-09T07:02:50.392Z,2.10
2022-12-09T07:07:53.328Z,2.10
2022-12-09T07:12:56.301Z,2.30
2022-12-09T07:17:58.836Z,2.20
2022-12-09T07:23:01.751Z,2.20
2022-12-09T07:28:04.337Z,2.30
2022-12-09T07:33:07.120Z,2.40
2022-12-09T07:38:09.782Z,2.40
2022-12-09T07:43:12.274Z,2.90
2022-12-09T07:48:15.182Z,5.70
2022-12-09T07:53:17.719Z,4.20
2022-12-09T07:58:20.393Z,3.40
2022-12-09T08:03:23.092Z,3.20
2022-12-09T08:08:25.876Z,3.00
2022-12-09T08:13:29.192Z,3.00
2022-12-09T08:18:33.361Z,3.10
2022-12-09T08:23:36.669Z,3.60
2022-12-09T08:28:39.607Z,4.60
2022-12-09T08:33:42.758Z,4.50
2022-12-09T08:38:46.323Z,4.10
2022-12-09T08:43:49.288Z,4.10
2022-12-09T08:48:52.016Z,4.40
2022-12-09T08:53:54.734Z,3.90
2022-12-09T08:58:57.958Z,3.80
2022-12-09T09:04:02.756Z,3.90
2022-12-09T09:09:07.792Z,4.70
2022-12-09T09:14:12.481Z,4.40
2022-12-09T09:19:17.796Z,4.60
2022-12-09T09:24:23.704Z,4.50
2022-12-09T09:29:26.386Z,5.40
2022-12-09T09:34:29.223Z,4.80
2022-12-09T09:39:32.260Z,4.50
2022-12-09T09:44:40.125Z,4.30
2022-12-09T09:49:58.763Z,4.40
2022-12-09T09:55:24.042Z,5.70
2022-12-09T10:00:37.368Z,6.50
2022-12-09T10:06:11.651Z,6.30
2022-12-09T10:11:27.079Z,5.60
2022-12-09T10:16:35.866Z,5.40
2022-12-09T10:21:44.572Z,6.60
2022-12-09T10:27:12.581Z,5.00
2022-12-09T10:32:19.589Z,4.50
2022-12-09T10:37:32.937Z,4.70
2022-12-09T10:43:09.428Z,4.30
2022-12-09T10:48:40.321Z,5.00
2022-12-09T10:54:08.323Z,2.80
2022-12-09T10:59:25.772Z,2.00
2022-12-09T11:04:34.005Z,1.90
2022-12-09T11:09:40.468Z,1.40
2022-12-09T11:14:56.949Z,1.40
2022-12-09T11:20:05.786Z,1.40
2022-12-09T11:25:15.906Z,1.40
2022-12-09T11:30:22.485Z,1.50
2022-12-09T11:35:40.019Z,1.50
2022-12-09T11:40:43.668Z,1.30
2022-12-09T11:45:46.152Z,1.30
2022-12-09T11:50:51.825Z,1.50
2022-12-09T11:56:16.673Z,1.60
2022-12-09T12:01:37.242Z,1.40
2022-12-09T12:06:50.793Z,1.50
2022-12-09T12:12:07.263Z,1.50
2022-12-09T12:17:25.877Z,1.60
2022-12-09T12:22:51.527Z,1.60
2022-12-09T12:27:59.935Z,1.50
2022-12-09T12:39:21.045Z,1.60
2022-12-09T12:45:17.852Z,1.50
2022-12-09T12:50:28.566Z,1.40
2022-12-09T12:55:42.730Z,1.40
2022-12-09T13:01:04.567Z,1.50
2022-12-09T13:06:12.430Z,1.40
2022-12-09T13:11:19.996Z,1.40
2022-12-09T13:16:30.355Z,1.30
2022-12-09T13:21:32.942Z,1.10
2022-12-09T13:26:53.876Z,1.10
2022-12-09T13:43:04.037Z,0.80
2022-12-09T13:48:14.830Z,0.90
2022-12-09T13:53:19.150Z,0.90
2022-12-09T13:58:49.173Z,2.10
2022-12-09T14:04:10.313Z,3.90
2022-12-09T14:09:18.933Z,3.60
2022-12-09T14:14:25.494Z,2.70
2022-12-09T14:19:29.428Z,2.40
2022-12-09T14:24:32.508Z,2.20
2022-12-09T14:29:48.863Z,2.20
2022-12-09T14:35:04.477Z,2.10
2022-12-09T14:40:15.875Z,2.10
2022-12-09T14:45:57.891Z,2.60
2022-12-09T14:51:34.752Z,2.90
2022-12-09T14:56:37.962Z,2.70
2022-12-09T15:01:53.052Z,2.70
2022-12-09T15:07:11.892Z,2.80
2022-12-09T15:12:14.299Z,2.00
2022-12-09T15:17:27.534Z,1.90
2022-12-09T15:22:32.552Z,1.90
2022-12-09T15:27:34.987Z,1.80
2022-12-09T15:32:40.474Z,1.70
2022-12-09T15:37:43.426Z,1.30
2022-12-09T15:42:50.403Z,1.10
2022-12-09T15:48:11.258Z,1.20
2022-12-09T15:53:45.014Z,1.40
2022-12-09T15:58:54.595Z,1.70
2022-12-09T16:03:59.529Z,2.10
2022-12-09T16:09:02.836Z,2.00
2022-12-09T16:14:05.558Z,1.60
2022-12-09T16:19:25.362Z,1.70
2022-12-09T16:24:44.545Z,2.10
2022-12-09T16:29:54.009Z,2.00
2022-12-09T16:34:59.479Z,2.30
2022-12-09T16:40:21.036Z,2.00
2022-12-09T16:45:34.114Z,1.70
2022-12-09T16:50:43.043Z,1.50
2022-12-09T16:55:54.072Z,1.70
2022-12-09T17:00:57.953Z,2.00
2022-12-09T17:06:01.067Z,1.50
2022-12-09T17:11:03.547Z,1.60
2022-12-09T17:16:07.243Z,1.40
2022-12-09T17:21:12.472Z,1.20
2022-12-09T17:26:17.598Z,1.30
2022-12-09T17:31:23.210Z,1.50
2022-12-09T17:36:25.675Z,1.30
2022-12-09T17:41:28.068Z,1.20
2022-12-09T17:46:30.698Z,1.10
2022-12-09T17:51:36.291Z,1.10
2022-12-09T17:56:39.263Z,1.10
2022-12-09T18:01:43.978Z,1.20
2022-12-09T18:06:46.937Z,1.40
2022-12-09T18:11:51.666Z,1.40
2022-12-09T18:16:54.271Z,1.40
2022-12-09T18:21:57.209Z,1.70
2022-12-09T18:27:00.264Z,1.80
2022-12-09T18:32:02.766Z,1.70
2022-12-09T18:37:05.282Z,1.70
2022-12-09T18:42:08.730Z,1.70
2022-12-09T18:47:11.095Z,1.80
2022-12-09T18:52:13.518Z,1.90
2022-12-09T18:57:15.960Z,1.60
2022-12-09T19:02:18.681Z,2.00
2022-12-09T19:07:21.077Z,1.90
2022-12-09T19:12:46.394Z,1.70
2022-12-09T19:17:47.232Z,1.60
2022-12-09T19:22:49.557Z,1.90
2022-12-09T19:27:52.102Z,1.80
2022-12-09T19:32:54.446Z,1.30
2022-12-09T19:38:01.218Z,1.20
2022-12-09T19:43:04.150Z,1.20
2022-12-09T19:48:07.134Z,1.20
2022-12-09T19:53:09.582Z,1.40
2022-12-09T19:58:13.006Z,1.30
2022-12-09T20:03:15.443Z,1.30
2022-12-09T20:08:18.333Z,1.40
2022-12-09T20:13:20.834Z,1.30
2022-12-09T20:18:23.251Z,1.40
2022-12-09T20:23:25.658Z,1.60
2022-12-09T20:28:30.411Z,2.10
2022-12-09T20:33:33.414Z,2.00
2022-12-09T20:38:36.211Z,2.00
2022-12-09T20:43:45.438Z,1.80
2022-12-09T20:48:48.421Z,1.50
2022-12-09T20:53:51.469Z,1.40
2022-12-09T20:58:54.990Z,1.80
2022-12-09T21:03:59.132Z,2.10
2022-12-09T21:09:04.175Z,2.10
2022-12-09T21:14:07.668Z,1.90
2022-12-09T21:19:15.258Z,1.90
2022-12-09T21:24:18.825Z,1.80
2022-12-09T21:29:21.506Z,2.00
2022-12-09T21:34:25.269Z,2.00
2022-12-09T21:39:28.320Z,2.20
2022-12-09T21:44:30.724Z,2.00
2022-12-09T21:49:33.525Z,2.10
2022-12-09T21:54:36.302Z,2.30
2022-12-09T21:59:38.653Z,2.40
2022-12-09T22:04:41.560Z,2.20
2022-12-09T22:09:44.115Z,2.30
2022-12-09T22:14:46.564Z,3.00
2022-12-09T22:20:01.114Z,2.90
2022-12-09T22:25:11.668Z,3.10
2022-12-09T22:30:14.265Z,3.10
2022-12-09T22:35:16.629Z,3.00
2022-12-09T22:40:19.997Z,2.90
2022-12-09T22:45:22.382Z,2.70
2022-12-09T22:50:24.822Z,2.60
2022-12-09T22:55:27.232Z,2.50
2022-12-09T23:00:29.761Z,2.30
2022-12-09T23:05:36.839Z,2.10
2022-12-09T23:10:39.848Z,2.20
2022-12-09T23:15:42.363Z,2.30
2022-12-09T23:20:44.863Z,3.30
2022-12-09T23:25:47.314Z,2.70
2022-12-09T23:30:49.663Z,2.40
2022-12-09T23:35:52.133Z,2.10
2022-12-09T23:40:54.575Z,2.00
2022-12-09T23:46:04.140Z,2.20
2022-12-09T23:51:13.888Z,2.30
2022-12-09T23:56:21.685Z,1.90
